sensor_id;sensor_type;location;lat;lon;timestamp;P1;durP1;ratioP1;P2;durP2;ratioP2
22780;SDS011;11557;50.884;4.322;2022-07-22T00:01:29;18.45;;;4.40;;
22780;SDS011;11557;50.884;4.322;2022-07-22T00:03:55;10.30;;;3.97;;
22780;SDS011;11557;50.884;4.322;2022-07-22T00:06:21;12.25;;;4.35;;
22780;SDS011;11557;50.884;4.322;2022-07-22T00:08:47;15.05;;;4.20;;
22780;SDS011;11557;50.884;4.322;2022-07-22T00:11:12;18.98;;;4.18;;
22780;SDS011;11557;50.884;4.322;2022-07-22T00:13:38;16.00;;;4.70;;
22780;SDS011;11557;50.884;4.322;2022-07-22T00:16:04;13.02;;;3.80;;
22780;SDS011;11557;50.884;4.322;2022-07-22T00:18:30;13.55;;;3.92;;
22780;SDS011;11557;50.884;4.322;2022-07-22T00:20:56;15.80;;;4.13;;
22780;SDS011;11557;50.884;4.322;2022-07-22T00:23:21;16.25;;;4.70;;
22780;SDS011;11557;50.884;4.322;2022-07-22T00:25:47;16.67;;;4.40;;
22780;SDS011;11557;50.884;4.322;2022-07-22T00:28:13;17.10;;;4.50;;
22780;SDS011;11557;50.884;4.322;2022-07-22T00:30:38;15.15;;;4.40;;
22780;SDS011;11557;50.884;4.322;2022-07-22T00:33:04;12.80;;;4.53;;
22780;SDS011;11557;50.884;4.322;2022-07-22T00:35:30;12.18;;;4.15;;
22780;SDS011;11557;50.884;4.322;2022-07-22T00:37:55;14.25;;;4.10;;
22780;SDS011;11557;50.884;4.322;2022-07-22T00:40:21;15.27;;;4.50;;
22780;SDS011;11557;50.884;4.322;2022-07-22T00:42:47;16.00;;;4.22;;
22780;SDS011;11557;50.884;4.322;2022-07-22T00:45:13;12.55;;;4.25;;
22780;SDS011;11557;50.884;4.322;2022-07-22T00:47:38;13.85;;;4.40;;
22780;SDS011;11557;50.884;4.322;2022-07-22T00:50:05;16.63;;;4.47;;
22780;SDS011;11557;50.884;4.322;2022-07-22T00:52:31;14.48;;;3.90;;
22780;SDS011;11557;50.884;4.322;2022-07-22T00:54:58;14.20;;;4.22;;
22780;SDS011;11557;50.884;4.322;2022-07-22T00:57:24;21.10;;;4.65;;
22780;SDS011;11557;50.884;4.322;2022-07-22T00:59:50;13.43;;;3.95;;
22780;SDS011;11557;50.884;4.322;2022-07-22T01:02:16;16.05;;;4.32;;
22780;SDS011;11557;50.884;4.322;2022-07-22T01:04:41;14.18;;;3.83;;
22780;SDS011;11557;50.884;4.322;2022-07-22T01:07:07;21.30;;;4.63;;
22780;SDS011;11557;50.884;4.322;2022-07-22T01:09:33;14.45;;;4.10;;
22780;SDS011;11557;50.884;4.322;2022-07-22T01:11:59;14.73;;;4.20;;
22780;SDS011;11557;50.884;4.322;2022-07-22T01:14:25;13.65;;;4.10;;
22780;SDS011;11557;50.884;4.322;2022-07-22T01:16:51;15.63;;;3.90;;
22780;SDS011;11557;50.884;4.322;2022-07-22T01:19:16;15.13;;;4.28;;
22780;SDS011;11557;50.884;4.322;2022-07-22T01:21:42;13.10;;;4.35;;
22780;SDS011;11557;50.884;4.322;2022-07-22T01:24:08;11.00;;;3.75;;
22780;SDS011;11557;50.884;4.322;2022-07-22T01:26:34;8.43;;;3.67;;
22780;SDS011;11557;50.884;4.322;2022-07-22T01:28:59;12.55;;;4.00;;
22780;SDS011;11557;50.884;4.322;2022-07-22T01:31:25;14.93;;;4.30;;
22780;SDS011;11557;50.884;4.322;2022-07-22T01:33:51;15.07;;;3.95;;
22780;SDS011;11557;50.884;4.322;2022-07-22T01:36:16;11.57;;;3.65;;
22780;SDS011;11557;50.884;4.322;2022-07-22T01:38:42;13.63;;;4.00;;
22780;SDS011;11557;50.884;4.322;2022-07-22T01:41:08;21.73;;;4.32;;
22780;SDS011;11557;50.884;4.322;2022-07-22T01:43:34;9.88;;;3.55;;
22780;SDS011;11557;50.884;4.322;2022-07-22T01:45:59;14.45;;;4.18;;
22780;SDS011;11557;50.884;4.322;2022-07-22T01:48:25;12.95;;;4.53;;
22780;SDS011;11557;50.884;4.322;2022-07-22T01:50:51;12.77;;;3.97;;
22780;SDS011;11557;50.884;4.322;2022-07-22T01:53:17;8.75;;;3.70;;
22780;SDS011;11557;50.884;4.322;2022-07-22T01:55:43;11.20;;;3.78;;
22780;SDS011;11557;50.884;4.322;2022-07-22T01:58:09;13.23;;;4.35;;
22780;SDS011;11557;50.884;4.322;2022-07-22T02:00:35;10.52;;;4.00;;
22780;SDS011;11557;50.884;4.322;2022-07-22T02:03:01;12.40;;;4.53;;
22780;SDS011;11557;50.884;4.322;2022-07-22T02:05:29;13.70;;;4.72;;
22780;SDS011;11557;50.884;4.322;2022-07-22T02:08:04;13.60;;;4.55;;
22780;SDS011;11557;50.884;4.322;2022-07-22T02:10:32;17.33;;;4.40;;
22780;SDS011;11557;50.884;4.322;2022-07-22T02:12:58;9.88;;;4.70;;
22780;SDS011;11557;50.884;4.322;2022-07-22T02:15:24;13.10;;;4.50;;
22780;SDS011;11557;50.884;4.322;2022-07-22T02:17:51;12.32;;;4.25;;
22780;SDS011;11557;50.884;4.322;2022-07-22T02:20:16;13.50;;;4.85;;
22780;SDS011;11557;50.884;4.322;2022-07-22T02:22:42;10.75;;;4.35;;
22780;SDS011;11557;50.884;4.322;2022-07-22T02:25:08;13.88;;;4.90;;
22780;SDS011;11557;50.884;4.322;2022-07-22T02:27:33;15.35;;;4.57;;
22780;SDS011;11557;50.884;4.322;2022-07-22T02:29:59;13.30;;;4.40;;
22780;SDS011;11557;50.884;4.322;2022-07-22T02:32:25;11.95;;;4.13;;
22780;SDS011;11557;50.884;4.322;2022-07-22T02:34:50;14.20;;;4.53;;
22780;SDS011;11557;50.884;4.322;2022-07-22T02:37:16;12.77;;;4.50;;
22780;SDS011;11557;50.884;4.322;2022-07-22T02:39:42;15.85;;;4.97;;
22780;SDS011;11557;50.884;4.322;2022-07-22T02:42:07;13.00;;;4.22;;
22780;SDS011;11557;50.884;4.322;2022-07-22T02:44:33;13.20;;;4.47;;
22780;SDS011;11557;50.884;4.322;2022-07-22T02:46:59;13.25;;;4.55;;
22780;SDS011;11557;50.884;4.322;2022-07-22T02:49:24;10.02;;;4.10;;
22780;SDS011;11557;50.884;4.322;2022-07-22T02:51:50;11.10;;;4.30;;
22780;SDS011;11557;50.884;4.322;2022-07-22T02:54:16;12.30;;;4.30;;
22780;SDS011;11557;50.884;4.322;2022-07-22T02:56:42;8.52;;;3.38;;
22780;SDS011;11557;50.884;4.322;2022-07-22T02:59:08;11.07;;;4.05;;
22780;SDS011;11557;50.884;4.322;2022-07-22T03:01:33;9.30;;;4.07;;
22780;SDS011;11557;50.884;4.322;2022-07-22T03:03:59;8.52;;;3.30;;
22780;SDS011;11557;50.884;4.322;2022-07-22T03:06:25;15.23;;;4.82;;
22780;SDS011;11557;50.884;4.322;2022-07-22T03:08:50;12.43;;;4.50;;
22780;SDS011;11557;50.884;4.322;2022-07-22T03:11:16;12.10;;;3.97;;
22780;SDS011;11557;50.884;4.322;2022-07-22T03:13:42;15.02;;;5.15;;
22780;SDS011;11557;50.884;4.322;2022-07-22T03:16:07;9.88;;;3.97;;
22780;SDS011;11557;50.884;4.322;2022-07-22T03:18:33;11.85;;;4.18;;
22780;SDS011;11557;50.884;4.322;2022-07-22T03:21:00;8.07;;;4.20;;
22780;SDS011;11557;50.884;4.322;2022-07-22T03:23:25;11.98;;;4.35;;
22780;SDS011;11557;50.884;4.322;2022-07-22T03:25:51;7.65;;;3.60;;
22780;SDS011;11557;50.884;4.322;2022-07-22T03:28:17;8.68;;;3.47;;
22780;SDS011;11557;50.884;4.322;2022-07-22T03:30:42;11.02;;;3.55;;
22780;SDS011;11557;50.884;4.322;2022-07-22T03:33:08;11.43;;;3.95;;
22780;SDS011;11557;50.884;4.322;2022-07-22T03:35:33;10.43;;;3.92;;
22780;SDS011;11557;50.884;4.322;2022-07-22T03:37:59;9.00;;;3.75;;
22780;SDS011;11557;50.884;4.322;2022-07-22T03:40:25;8.05;;;3.38;;
22780;SDS011;11557;50.884;4.322;2022-07-22T03:42:50;9.05;;;3.88;;
22780;SDS011;11557;50.884;4.322;2022-07-22T03:45:16;10.23;;;3.83;;
22780;SDS011;11557;50.884;4.322;2022-07-22T03:47:41;7.25;;;4.05;;
22780;SDS011;11557;50.884;4.322;2022-07-22T03:50:07;12.27;;;4.15;;
22780;SDS011;11557;50.884;4.322;2022-07-22T03:52:33;10.50;;;4.13;;
22780;SDS011;11557;50.884;4.322;2022-07-22T03:54:59;11.60;;;4.32;;
22780;SDS011;11557;50.884;4.322;2022-07-22T03:57:24;8.07;;;3.92;;
22780;SDS011;11557;50.884;4.322;2022-07-22T03:59:50;9.63;;;3.88;;
22780;SDS011;11557;50.884;4.322;2022-07-22T04:02:15;9.10;;;3.83;;
22780;SDS011;11557;50.884;4.322;2022-07-22T04:04:41;11.25;;;4.05;;
22780;SDS011;11557;50.884;4.322;2022-07-22T04:07:07;7.32;;;3.72;;
22780;SDS011;11557;50.884;4.322;2022-07-22T04:09:32;10.85;;;4.32;;
22780;SDS011;11557;50.884;4.322;2022-07-22T04:11:58;7.35;;;3.95;;
22780;SDS011;11557;50.884;4.322;2022-07-22T04:14:23;9.07;;;4.28;;
22780;SDS011;11557;50.884;4.322;2022-07-22T04:16:49;10.60;;;4.35;;
22780;SDS011;11557;50.884;4.322;2022-07-22T04:19:15;13.00;;;4.10;;
22780;SDS011;11557;50.884;4.322;2022-07-22T04:21:41;12.88;;;4.32;;
22780;SDS011;11557;50.884;4.322;2022-07-22T04:24:07;16.92;;;5.50;;
22780;SDS011;11557;50.884;4.322;2022-07-22T04:26:33;12.65;;;4.20;;
22780;SDS011;11557;50.884;4.322;2022-07-22T04:28:59;11.52;;;4.40;;
22780;SDS011;11557;50.884;4.322;2022-07-22T04:31:25;10.82;;;4.80;;
22780;SDS011;11557;50.884;4.322;2022-07-22T04:33:50;13.32;;;5.00;;
22780;SDS011;11557;50.884;4.322;2022-07-22T04:36:16;14.73;;;5.10;;
22780;SDS011;11557;50.884;4.322;2022-07-22T04:38:41;13.93;;;5.57;;
22780;SDS011;11557;50.884;4.322;2022-07-22T04:41:07;12.02;;;4.40;;
22780;SDS011;11557;50.884;4.322;2022-07-22T04:43:33;9.60;;;4.28;;
22780;SDS011;11557;50.884;4.322;2022-07-22T04:45:58;11.80;;;5.18;;
22780;SDS011;11557;50.884;4.322;2022-07-22T04:48:24;15.85;;;4.72;;
22780;SDS011;11557;50.884;4.322;2022-07-22T04:50:50;13.40;;;4.75;;
22780;SDS011;11557;50.884;4.322;2022-07-22T04:53:15;12.90;;;4.85;;
22780;SDS011;11557;50.884;4.322;2022-07-22T04:55:41;9.55;;;5.03;;
22780;SDS011;11557;50.884;4.322;2022-07-22T04:58:06;12.95;;;4.90;;
22780;SDS011;11557;50.884;4.322;2022-07-22T05:00:32;11.43;;;4.85;;
22780;SDS011;11557;50.884;4.322;2022-07-22T05:02:58;10.40;;;4.72;;
22780;SDS011;11557;50.884;4.322;2022-07-22T05:05:23;11.40;;;4.72;;
22780;SDS011;11557;50.884;4.322;2022-07-22T05:07:49;12.38;;;4.68;;
22780;SDS011;11557;50.884;4.322;2022-07-22T05:10:15;11.60;;;5.15;;
22780;SDS011;11557;50.884;4.322;2022-07-22T05:12:41;12.63;;;4.82;;
22780;SDS011;11557;50.884;4.322;2022-07-22T05:15:07;14.60;;;5.15;;
22780;SDS011;11557;50.884;4.322;2022-07-22T05:17:33;10.73;;;4.50;;
22780;SDS011;11557;50.884;4.322;2022-07-22T05:20:01;10.95;;;4.50;;
22780;SDS011;11557;50.884;4.322;2022-07-22T05:22:27;14.55;;;4.57;;
22780;SDS011;11557;50.884;4.322;2022-07-22T05:24:53;11.32;;;4.30;;
22780;SDS011;11557;50.884;4.322;2022-07-22T05:27:19;18.42;;;4.45;;
22780;SDS011;11557;50.884;4.322;2022-07-22T05:29:44;20.55;;;5.00;;
22780;SDS011;11557;50.884;4.322;2022-07-22T05:32:10;11.63;;;5.22;;
22780;SDS011;11557;50.884;4.322;2022-07-22T05:34:35;15.38;;;4.45;;
22780;SDS011;11557;50.884;4.322;2022-07-22T05:37:01;14.82;;;4.82;;
22780;SDS011;11557;50.884;4.322;2022-07-22T05:39:27;12.40;;;5.15;;
22780;SDS011;11557;50.884;4.322;2022-07-22T05:41:53;15.25;;;4.70;;
22780;SDS011;11557;50.884;4.322;2022-07-22T05:44:18;18.48;;;5.35;;
22780;SDS011;11557;50.884;4.322;2022-07-22T05:46:44;13.32;;;4.97;;
22780;SDS011;11557;50.884;4.322;2022-07-22T05:49:09;11.30;;;4.93;;
22780;SDS011;11557;50.884;4.322;2022-07-22T05:51:35;15.77;;;5.30;;
22780;SDS011;11557;50.884;4.322;2022-07-22T05:54:01;14.85;;;4.85;;
22780;SDS011;11557;50.884;4.322;2022-07-22T05:56:29;16.13;;;5.18;;
22780;SDS011;11557;50.884;4.322;2022-07-22T05:58:55;15.43;;;4.93;;
22780;SDS011;11557;50.884;4.322;2022-07-22T06:01:21;16.13;;;5.47;;
22780;SDS011;11557;50.884;4.322;2022-07-22T06:03:47;13.82;;;5.10;;
22780;SDS011;11557;50.884;4.322;2022-07-22T06:06:13;11.05;;;5.00;;
22780;SDS011;11557;50.884;4.322;2022-07-22T06:08:39;19.60;;;6.10;;
22780;SDS011;11557;50.884;4.322;2022-07-22T06:11:05;17.42;;;5.97;;
22780;SDS011;11557;50.884;4.322;2022-07-22T06:13:31;14.48;;;5.30;;
22780;SDS011;11557;50.884;4.322;2022-07-22T06:15:57;18.83;;;6.40;;
22780;SDS011;11557;50.884;4.322;2022-07-22T06:18:23;26.98;;;7.18;;
22780;SDS011;11557;50.884;4.322;2022-07-22T06:20:49;14.43;;;6.93;;
22780;SDS011;11557;50.884;4.322;2022-07-22T06:23:15;15.75;;;6.78;;
22780;SDS011;11557;50.884;4.322;2022-07-22T06:25:40;16.38;;;6.47;;
22780;SDS011;11557;50.884;4.322;2022-07-22T06:28:07;19.52;;;6.63;;
22780;SDS011;11557;50.884;4.322;2022-07-22T06:30:33;19.98;;;7.38;;
22780;SDS011;11557;50.884;4.322;2022-07-22T06:32:58;19.45;;;7.68;;
22780;SDS011;11557;50.884;4.322;2022-07-22T06:35:24;16.75;;;6.22;;
22780;SDS011;11557;50.884;4.322;2022-07-22T06:37:49;15.32;;;6.10;;
22780;SDS011;11557;50.884;4.322;2022-07-22T06:40:16;12.38;;;6.70;;
22780;SDS011;11557;50.884;4.322;2022-07-22T06:42:42;15.73;;;6.53;;
22780;SDS011;11557;50.884;4.322;2022-07-22T06:45:07;16.95;;;6.10;;
22780;SDS011;11557;50.884;4.322;2022-07-22T06:47:33;14.82;;;6.50;;
22780;SDS011;11557;50.884;4.322;2022-07-22T06:50:04;15.43;;;5.60;;
22780;SDS011;11557;50.884;4.322;2022-07-22T06:52:31;11.40;;;5.43;;
22780;SDS011;11557;50.884;4.322;2022-07-22T06:54:57;10.00;;;4.85;;
22780;SDS011;11557;50.884;4.322;2022-07-22T06:57:25;11.60;;;4.90;;
22780;SDS011;11557;50.884;4.322;2022-07-22T06:59:51;15.85;;;5.38;;
22780;SDS011;11557;50.884;4.322;2022-07-22T07:02:16;12.13;;;4.30;;
22780;SDS011;11557;50.884;4.322;2022-07-22T07:04:42;9.77;;;4.60;;
22780;SDS011;11557;50.884;4.322;2022-07-22T07:07:08;11.43;;;4.43;;
22780;SDS011;11557;50.884;4.322;2022-07-22T07:09:34;7.50;;;4.65;;
22780;SDS011;11557;50.884;4.322;2022-07-22T07:12:00;14.82;;;5.22;;
22780;SDS011;11557;50.884;4.322;2022-07-22T07:14:26;11.43;;;4.90;;
22780;SDS011;11557;50.884;4.322;2022-07-22T07:16:51;10.75;;;4.80;;
22780;SDS011;11557;50.884;4.322;2022-07-22T07:19:17;7.53;;;4.57;;
22780;SDS011;11557;50.884;4.322;2022-07-22T07:21:44;8.52;;;4.18;;
22780;SDS011;11557;50.884;4.322;2022-07-22T07:24:10;12.35;;;4.13;;
22780;SDS011;11557;50.884;4.322;2022-07-22T07:26:36;9.95;;;3.40;;
22780;SDS011;11557;50.884;4.322;2022-07-22T07:29:02;8.85;;;3.65;;
22780;SDS011;11557;50.884;4.322;2022-07-22T07:31:27;13.68;;;3.63;;
22780;SDS011;11557;50.884;4.322;2022-07-22T07:33:53;8.48;;;3.53;;
22780;SDS011;11557;50.884;4.322;2022-07-22T07:36:19;8.05;;;2.97;;
22780;SDS011;11557;50.884;4.322;2022-07-22T07:38:45;14.27;;;3.45;;
22780;SDS011;11557;50.884;4.322;2022-07-22T07:41:10;7.35;;;4.20;;
22780;SDS011;11557;50.884;4.322;2022-07-22T07:43:36;8.60;;;4.32;;
22780;SDS011;11557;50.884;4.322;2022-07-22T07:46:02;8.88;;;3.78;;
22780;SDS011;11557;50.884;4.322;2022-07-22T07:48:29;7.18;;;3.58;;
22780;SDS011;11557;50.884;4.322;2022-07-22T07:50:55;10.25;;;4.20;;
22780;SDS011;11557;50.884;4.322;2022-07-22T07:53:20;8.27;;;4.22;;
22780;SDS011;11557;50.884;4.322;2022-07-22T07:55:46;7.15;;;3.83;;
22780;SDS011;11557;50.884;4.322;2022-07-22T07:58:12;6.93;;;3.88;;
22780;SDS011;11557;50.884;4.322;2022-07-22T08:00:38;9.30;;;3.67;;
22780;SDS011;11557;50.884;4.322;2022-07-22T08:03:04;9.40;;;3.75;;
22780;SDS011;11557;50.884;4.322;2022-07-22T08:05:30;9.82;;;3.80;;
22780;SDS011;11557;50.884;4.322;2022-07-22T08:07:56;9.48;;;4.47;;
22780;SDS011;11557;50.884;4.322;2022-07-22T08:10:22;9.30;;;4.15;;
22780;SDS011;11557;50.884;4.322;2022-07-22T08:12:48;7.35;;;4.05;;
22780;SDS011;11557;50.884;4.322;2022-07-22T08:15:14;7.50;;;3.80;;
22780;SDS011;11557;50.884;4.322;2022-07-22T08:17:40;9.30;;;3.50;;
22780;SDS011;11557;50.884;4.322;2022-07-22T08:20:05;9.70;;;3.70;;
22780;SDS011;11557;50.884;4.322;2022-07-22T08:22:32;5.68;;;3.17;;
22780;SDS011;11557;50.884;4.322;2022-07-22T08:24:58;7.88;;;3.38;;
22780;SDS011;11557;50.884;4.322;2022-07-22T08:27:24;6.60;;;3.20;;
22780;SDS011;11557;50.884;4.322;2022-07-22T08:29:50;7.95;;;3.50;;
22780;SDS011;11557;50.884;4.322;2022-07-22T08:32:15;4.75;;;3.00;;
22780;SDS011;11557;50.884;4.322;2022-07-22T08:34:41;6.78;;;3.15;;
22780;SDS011;11557;50.884;4.322;2022-07-22T08:37:07;5.85;;;3.25;;
22780;SDS011;11557;50.884;4.322;2022-07-22T08:39:32;7.95;;;3.20;;
22780;SDS011;11557;50.884;4.322;2022-07-22T08:41:59;10.98;;;3.13;;
22780;SDS011;11557;50.884;4.322;2022-07-22T08:44:25;8.63;;;3.20;;
22780;SDS011;11557;50.884;4.322;2022-07-22T08:46:55;6.50;;;3.35;;
22780;SDS011;11557;50.884;4.322;2022-07-22T08:49:20;7.20;;;3.10;;
22780;SDS011;11557;50.884;4.322;2022-07-22T08:51:46;9.95;;;3.38;;
22780;SDS011;11557;50.884;4.322;2022-07-22T08:54:12;8.98;;;3.40;;
22780;SDS011;11557;50.884;4.322;2022-07-22T08:56:37;5.40;;;3.00;;
22780;SDS011;11557;50.884;4.322;2022-07-22T08:59:04;5.72;;;3.22;;
22780;SDS011;11557;50.884;4.322;2022-07-22T09:01:30;5.72;;;2.92;;
22780;SDS011;11557;50.884;4.322;2022-07-22T09:03:56;6.13;;;3.10;;
22780;SDS011;11557;50.884;4.322;2022-07-22T09:06:23;5.18;;;2.50;;
22780;SDS011;11557;50.884;4.322;2022-07-22T09:08:58;6.85;;;2.88;;
22780;SDS011;11557;50.884;4.322;2022-07-22T09:11:26;7.18;;;2.90;;
22780;SDS011;11557;50.884;4.322;2022-07-22T09:13:53;5.00;;;2.72;;
22780;SDS011;11557;50.884;4.322;2022-07-22T09:19:08;6.72;;;2.85;;
22780;SDS011;11557;50.884;4.322;2022-07-22T09:21:34;6.75;;;2.88;;
22780;SDS011;11557;50.884;4.322;2022-07-22T09:24:02;7.47;;;2.85;;
22780;SDS011;11557;50.884;4.322;2022-07-22T09:26:32;8.52;;;3.00;;
22780;SDS011;11557;50.884;4.322;2022-07-22T09:29:03;4.82;;;2.55;;
22780;SDS011;11557;50.884;4.322;2022-07-22T09:31:30;8.52;;;2.90;;
22780;SDS011;11557;50.884;4.322;2022-07-22T09:33:58;5.35;;;2.58;;
22780;SDS011;11557;50.884;4.322;2022-07-22T09:36:25;5.63;;;2.42;;
22780;SDS011;11557;50.884;4.322;2022-07-22T09:38:51;5.55;;;2.40;;
22780;SDS011;11557;50.884;4.322;2022-07-22T09:41:16;4.90;;;2.88;;
22780;SDS011;11557;50.884;4.322;2022-07-22T09:43:43;7.68;;;3.05;;
22780;SDS011;11557;50.884;4.322;2022-07-22T09:46:09;8.23;;;2.72;;
22780;SDS011;11557;50.884;4.322;2022-07-22T09:48:35;9.25;;;3.45;;
22780;SDS011;11557;50.884;4.322;2022-07-22T09:51:03;5.53;;;2.83;;
22780;SDS011;11557;50.884;4.322;2022-07-22T09:53:29;4.80;;;2.60;;
22780;SDS011;11557;50.884;4.322;2022-07-22T09:55:56;5.97;;;2.45;;
22780;SDS011;11557;50.884;4.322;2022-07-22T09:58:22;6.22;;;2.70;;
22780;SDS011;11557;50.884;4.322;2022-07-22T10:00:48;7.28;;;2.90;;
22780;SDS011;11557;50.884;4.322;2022-07-22T10:03:19;7.50;;;3.15;;
22780;SDS011;11557;50.884;4.322;2022-07-22T10:05:50;7.10;;;3.08;;
22780;SDS011;11557;50.884;4.322;2022-07-22T10:08:16;5.28;;;2.63;;
22780;SDS011;11557;50.884;4.322;2022-07-22T10:10:43;8.07;;;2.80;;
22780;SDS011;11557;50.884;4.322;2022-07-22T10:13:09;5.05;;;2.92;;
22780;SDS011;11557;50.884;4.322;2022-07-22T10:15:35;8.02;;;2.80;;
22780;SDS011;11557;50.884;4.322;2022-07-22T10:18:13;5.13;;;3.53;;
22780;SDS011;11557;50.884;4.322;2022-07-22T10:20:40;8.93;;;3.10;;
22780;SDS011;11557;50.884;4.322;2022-07-22T10:23:07;6.00;;;3.20;;
22780;SDS011;11557;50.884;4.322;2022-07-22T10:25:53;6.13;;;3.03;;
22780;SDS011;11557;50.884;4.322;2022-07-22T10:28:27;6.00;;;2.90;;
22780;SDS011;11557;50.884;4.322;2022-07-22T10:30:54;5.70;;;2.88;;
22780;SDS011;11557;50.884;4.322;2022-07-22T10:33:53;4.82;;;2.75;;
22780;SDS011;11557;50.884;4.322;2022-07-22T10:36:30;6.93;;;3.13;;
22780;SDS011;11557;50.884;4.322;2022-07-22T10:39:03;6.07;;;2.78;;
22780;SDS011;11557;50.884;4.322;2022-07-22T10:41:34;6.85;;;3.05;;
22780;SDS011;11557;50.884;4.322;2022-07-22T10:44:02;5.40;;;2.72;;
22780;SDS011;11557;50.884;4.322;2022-07-22T10:46:47;9.30;;;2.95;;
22780;SDS011;11557;50.884;4.322;2022-07-22T10:49:18;5.43;;;3.03;;
22780;SDS011;11557;50.884;4.322;2022-07-22T10:54:33;6.32;;;2.90;;
22780;SDS011;11557;50.884;4.322;2022-07-22T10:56:59;7.93;;;3.30;;
22780;SDS011;11557;50.884;4.322;2022-07-22T10:59:25;9.52;;;3.85;;
22780;SDS011;11557;50.884;4.322;2022-07-22T11:01:51;6.60;;;3.08;;
22780;SDS011;11557;50.884;4.322;2022-07-22T11:06:49;6.57;;;3.05;;
22780;SDS011;11557;50.884;4.322;2022-07-22T11:09:18;8.00;;;3.15;;
22780;SDS011;11557;50.884;4.322;2022-07-22T11:11:49;8.70;;;3.42;;
22780;SDS011;11557;50.884;4.322;2022-07-22T11:14:18;8.15;;;3.15;;
22780;SDS011;11557;50.884;4.322;2022-07-22T11:19:39;5.45;;;3.25;;
22780;SDS011;11557;50.884;4.322;2022-07-22T11:22:08;7.78;;;3.38;;
22780;SDS011;11557;50.884;4.322;2022-07-22T11:24:36;7.43;;;2.92;;
22780;SDS011;11557;50.884;4.322;2022-07-22T11:27:03;7.53;;;3.47;;
22780;SDS011;11557;50.884;4.322;2022-07-22T11:29:33;6.57;;;3.22;;
22780;SDS011;11557;50.884;4.322;2022-07-22T11:32:00;9.18;;;3.28;;
22780;SDS011;11557;50.884;4.322;2022-07-22T11:34:27;9.68;;;3.20;;
22780;SDS011;11557;50.884;4.322;2022-07-22T11:36:53;6.68;;;3.22;;
22780;SDS011;11557;50.884;4.322;2022-07-22T11:39:21;6.47;;;3.20;;
22780;SDS011;11557;50.884;4.322;2022-07-22T11:41:52;6.57;;;3.10;;
22780;SDS011;11557;50.884;4.322;2022-07-22T11:44:19;7.80;;;3.45;;
22780;SDS011;11557;50.884;4.322;2022-07-22T11:46:46;9.15;;;3.95;;
22780;SDS011;11557;50.884;4.322;2022-07-22T11:49:13;4.30;;;3.70;;
22780;SDS011;11557;50.884;4.322;2022-07-22T11:51:43;9.15;;;4.20;;
22780;SDS011;11557;50.884;4.322;2022-07-22T11:54:09;6.32;;;3.63;;
22780;SDS011;11557;50.884;4.322;2022-07-22T11:56:36;7.15;;;3.95;;
22780;SDS011;11557;50.884;4.322;2022-07-22T11:59:02;9.15;;;3.50;;
22780;SDS011;11557;50.884;4.322;2022-07-22T12:01:30;7.47;;;3.42;;
22780;SDS011;11557;50.884;4.322;2022-07-22T12:04:07;7.03;;;3.45;;
22780;SDS011;11557;50.884;4.322;2022-07-22T12:11:40;8.13;;;3.70;;
22780;SDS011;11557;50.884;4.322;2022-07-22T12:14:13;7.38;;;4.05;;
22780;SDS011;11557;50.884;4.322;2022-07-22T12:17:19;4.90;;;3.45;;
22780;SDS011;11557;50.884;4.322;2022-07-22T12:19:39;7.30;;;3.67;;
22780;SDS011;11557;50.884;4.322;2022-07-22T12:22:12;8.57;;;3.97;;
22780;SDS011;11557;50.884;4.322;2022-07-22T12:24:46;6.15;;;3.90;;
22780;SDS011;11557;50.884;4.322;2022-07-22T12:27:22;8.07;;;3.50;;
22780;SDS011;11557;50.884;4.322;2022-07-22T12:29:48;9.55;;;4.07;;
22780;SDS011;11557;50.884;4.322;2022-07-22T12:32:16;7.65;;;3.65;;
22780;SDS011;11557;50.884;4.322;2022-07-22T12:34:55;8.38;;;3.83;;
22780;SDS011;11557;50.884;4.322;2022-07-22T12:37:31;6.75;;;3.95;;
22780;SDS011;11557;50.884;4.322;2022-07-22T12:42:37;10.25;;;4.03;;
22780;SDS011;11557;50.884;4.322;2022-07-22T12:47:40;8.18;;;3.90;;
22780;SDS011;11557;50.884;4.322;2022-07-22T12:50:15;7.88;;;3.92;;
22780;SDS011;11557;50.884;4.322;2022-07-22T12:52:41;9.60;;;4.25;;
22780;SDS011;11557;50.884;4.322;2022-07-22T12:55:07;6.15;;;4.30;;
22780;SDS011;11557;50.884;4.322;2022-07-22T12:57:32;5.00;;;3.60;;
22780;SDS011;11557;50.884;4.322;2022-07-22T12:59:58;9.32;;;3.80;;
22780;SDS011;11557;50.884;4.322;2022-07-22T13:02:23;7.03;;;4.10;;
22780;SDS011;11557;50.884;4.322;2022-07-22T13:04:49;7.85;;;3.92;;
22780;SDS011;11557;50.884;4.322;2022-07-22T13:07:15;8.32;;;3.88;;
22780;SDS011;11557;50.884;4.322;2022-07-22T13:09:41;5.78;;;3.40;;
22780;SDS011;11557;50.884;4.322;2022-07-22T13:12:06;7.40;;;3.72;;
22780;SDS011;11557;50.884;4.322;2022-07-22T13:14:32;6.72;;;4.32;;
22780;SDS011;11557;50.884;4.322;2022-07-22T13:16:58;8.65;;;3.75;;
22780;SDS011;11557;50.884;4.322;2022-07-22T13:19:23;6.25;;;3.90;;
22780;SDS011;11557;50.884;4.322;2022-07-22T13:21:49;6.82;;;3.45;;
22780;SDS011;11557;50.884;4.322;2022-07-22T13:24:14;5.13;;;3.38;;
22780;SDS011;11557;50.884;4.322;2022-07-22T13:26:41;7.55;;;4.00;;
22780;SDS011;11557;50.884;4.322;2022-07-22T13:29:06;6.03;;;4.00;;
22780;SDS011;11557;50.884;4.322;2022-07-22T13:31:32;7.78;;;4.10;;
22780;SDS011;11557;50.884;4.322;2022-07-22T13:33:58;6.63;;;3.83;;
22780;SDS011;11557;50.884;4.322;2022-07-22T13:36:23;4.90;;;4.15;;
22780;SDS011;11557;50.884;4.322;2022-07-22T13:38:49;8.52;;;4.32;;
22780;SDS011;11557;50.884;4.322;2022-07-22T13:41:16;9.27;;;4.30;;
22780;SDS011;11557;50.884;4.322;2022-07-22T13:43:42;6.00;;;3.78;;
22780;SDS011;11557;50.884;4.322;2022-07-22T13:46:09;8.43;;;4.07;;
22780;SDS011;11557;50.884;4.322;2022-07-22T13:48:34;7.93;;;4.63;;
22780;SDS011;11557;50.884;4.322;2022-07-22T13:51:00;10.48;;;4.38;;
22780;SDS011;11557;50.884;4.322;2022-07-22T13:53:25;6.38;;;4.20;;
22780;SDS011;11557;50.884;4.322;2022-07-22T13:55:51;5.60;;;4.07;;
22780;SDS011;11557;50.884;4.322;2022-07-22T13:58:17;7.28;;;3.90;;
22780;SDS011;11557;50.884;4.322;2022-07-22T14:00:42;10.05;;;4.15;;
22780;SDS011;11557;50.884;4.322;2022-07-22T14:03:08;7.18;;;4.28;;
22780;SDS011;11557;50.884;4.322;2022-07-22T14:05:34;8.90;;;4.63;;
22780;SDS011;11557;50.884;4.322;2022-07-22T14:07:59;7.28;;;4.40;;
22780;SDS011;11557;50.884;4.322;2022-07-22T14:10:25;5.93;;;4.63;;
22780;SDS011;11557;50.884;4.322;2022-07-22T14:12:51;8.63;;;4.65;;
22780;SDS011;11557;50.884;4.322;2022-07-22T14:15:16;8.20;;;4.72;;
22780;SDS011;11557;50.884;4.322;2022-07-22T14:17:42;10.10;;;5.05;;
22780;SDS011;11557;50.884;4.322;2022-07-22T14:20:08;7.10;;;4.60;;
22780;SDS011;11557;50.884;4.322;2022-07-22T14:22:34;7.10;;;4.78;;
22780;SDS011;11557;50.884;4.322;2022-07-22T14:25:00;6.45;;;5.03;;
22780;SDS011;11557;50.884;4.322;2022-07-22T14:27:26;6.93;;;4.88;;
22780;SDS011;11557;50.884;4.322;2022-07-22T14:29:51;6.95;;;4.45;;
22780;SDS011;11557;50.884;4.322;2022-07-22T14:32:17;11.93;;;5.40;;
22780;SDS011;11557;50.884;4.322;2022-07-22T14:34:43;10.77;;;5.45;;
22780;SDS011;11557;50.884;4.322;2022-07-22T14:37:09;9.00;;;6.05;;
22780;SDS011;11557;50.884;4.322;2022-07-22T14:39:34;8.98;;;5.32;;
22780;SDS011;11557;50.884;4.322;2022-07-22T14:42:00;5.90;;;4.75;;
22780;SDS011;11557;50.884;4.322;2022-07-22T14:44:26;8.48;;;4.95;;
22780;SDS011;11557;50.884;4.322;2022-07-22T14:46:51;6.78;;;4.72;;
22780;SDS011;11557;50.884;4.322;2022-07-22T14:49:17;10.05;;;5.20;;
22780;SDS011;11557;50.884;4.322;2022-07-22T14:51:43;7.80;;;5.40;;
22780;SDS011;11557;50.884;4.322;2022-07-22T14:54:09;9.07;;;5.10;;
22780;SDS011;11557;50.884;4.322;2022-07-22T14:56:36;10.40;;;5.43;;
22780;SDS011;11557;50.884;4.322;2022-07-22T14:59:03;8.65;;;4.93;;